Hlavní strana
METAR-TAF:

METAR-TAF

Letiště :

Rocky Mount-Wilson Regional Airport

Rocky Mount, Severní Karolína, Spojené státy americké

zeměpisná šířka: 35-51-18N, zeměpisná délka: 077-53-35W, výška: 49 m

Aktuální stav počasí

Zpráva byla vytvořena před 33 minutami, v 15:53 UTC
Teplota 31°C
Vlhkost vzduchu 49%
Tlak 1014 hPa
Viditelnost: 16.1 km
Jasno

METAR: KRWI 031553Z AUTO 10SM CLR 31/19 A2995 RMK AO2 SLP141 T03110194

Čas: 12:26 (16:26 UTC)

Předpověď počasí

Zpráva byla vytvořena před 4 hodinami a 27 minutami, v 11:59 UTC
Předpověď platná od 03 v 12 UTC do 04 v 12 UTC
Severní vítr 4 kt
Viditelnost: 10 km
Skoro jasno ve výšce 25000 ft

TAF: KRWI 031159Z 0312/0412 35004KT P6SM FEW250

Stav a předpovědi počasí z více než 4 000 letišť (zprávy METAR a TAF).

Červené a žluté tečky na mapě představují dostupné meteorologické stanice.

Když kurzor umístíte na tečku, zobrazí se název stanice.

Pak kliknutím zobrazíte stav a předpověď počasí.

Chcete-li změnit mapu, kliknutím na zelené tlačítko se znaménkem +mapu přiblížíte, kliknutím na zelené tlačítko se znaménkem – mapu oddálíte a kliknutím na zelené šipky přejdete na sousední mapy.


METAR-TAF: